Time,TemperatureF,DewpointF,PressureIn,WindDirection,WindDirectionDegrees,WindSpeedMPH,WindSpeedGustMPH,Humidity,HourlyPrecipIn,Conditions,Clouds,dailyrainin,SoftwareType,DateUTC
2013-10-23 00:03:00,-999.0,-99.9,29.32,ESE,113,0.0,0.0,-999,-99.99,,,-99.99,WSDL version 426,2013-10-23 05:03:00,
2013-10-23 00:08:00,-999.0,-99.9,29.32,ESE,113,0.0,0.0,-999,-99.99,,,-99.99,WSDL version 426,2013-10-23 05:08:00,
2013-10-23 00:13:00,-999.0,-99.9,29.32,ESE,113,0.0,0.0,-999,-99.99,,,-99.99,WSDL version 426,2013-10-23 05:13:00,
2013-10-23 00:18:00,-999.0,-99.9,29.32,ESE,113,0.0,0.0,-999,-99.99,,,-99.99,WSDL version 426,2013-10-23 05:18:00,
2013-10-23 00:23:00,-999.0,-99.9,29.32,ESE,113,0.0,0.0,-999,-99.99,,,-99.99,WSDL version 426,2013-10-23 05:23:00,
2013-10-23 00:28:00,-999.0,-99.9,29.32,ESE,113,0.0,0.0,-999,-99.99,,,-99.99,WSDL version 426,2013-10-23 05:28:00,
2013-10-23 00:33:00,-999.0,-99.9,29.32,ESE,113,0.0,0.0,-999,-99.99,,,-99.99,WSDL version 426,2013-10-23 05:33:00,
2013-10-23 00:38:00,-999.0,-99.9,29.32,ESE,113,0.0,0.0,-999,-99.99,,,-99.99,WSDL version 426,2013-10-23 05:38:00,
2013-10-23 00:43:00,-999.0,-99.9,29.32,ESE,113,0.0,0.0,-999,-99.99,,,-99.99,WSDL version 426,2013-10-23 05:43:00,
2013-10-23 00:48:00,-999.0,-99.9,29.29,ESE,113,1.2,2.0,-999,-99.99,,,-99.99,WSDL version 426,2013-10-23 05:48:00,
2013-10-23 00:53:00,-999.0,-99.9,29.29,ESE,113,0.0,2.0,-999,-99.99,,,-99.99,WSDL version 426,2013-10-23 05:53:00,
2013-10-23 00:58:00,-999.0,-99.9,29.29,South,180,1.2,2.0,-999,-99.99,,,-99.99,WSDL version 426,2013-10-23 05:58:00,
2013-10-23 01:03:00,-999.0,-99.9,29.32,SSW,206,2.1,2.7,-999,-99.99,,,-99.99,WSDL version 426,2013-10-23 06:03:00,
2013-10-23 01:08:00,-999.0,-99.9,29.32,SSW,203,1.3,2.7,-999,-99.99,,,-99.99,WSDL version 426,2013-10-23 06:08:00,
2013-10-23 01:13:00,-999.0,-99.9,29.32,SSW,203,0.6,2.5,-999,-99.99,,,-99.99,WSDL version 426,2013-10-23 06:13:00,
2013-10-23 01:18:00,-999.0,-99.9,29.32,SSW,203,1.0,1.6,-999,-99.99,,,-99.99,WSDL version 426,2013-10-23 06:18:00,
2013-10-23 01:23:00,-999.0,-99.9,29.32,South,180,0.0,1.6,-999,-99.99,,,-99.99,WSDL version 426,2013-10-23 06:23:00,
2013-10-23 01:28:00,-999.0,-99.9,29.32,ESE,113,0.3,2.5,-999,-99.99,,,-99.99,WSDL version 426,2013-10-23 06:28:00,
2013-10-23 01:33:00,-999.0,-99.9,29.32,NE,45,1.5,2.7,-999,-99.99,,,-99.99,WSDL version 426,2013-10-23 06:33:00,
2013-10-23 01:38:00,-999.0,-99.9,29.32,NE,45,0.0,2.7,-999,-99.99,,,-99.99,WSDL version 426,2013-10-23 06:38:00,
2013-10-23 01:43:00,-999.0,-99.9,29.32,NE,45,0.0,2.5,-999,-99.99,,,-99.99,WSDL version 426,2013-10-23 06:43:00,
2013-10-23 01:48:00,-999.0,-99.9,29.32,NE,45,0.0,0.0,-999,-99.99,,,-99.99,WSDL version 426,2013-10-23 06:48:00,
2013-10-23 01:53:00,-999.0,-99.9,29.32,NE,45,0.0,0.0,-999,-99.99,,,-99.99,WSDL version 426,2013-10-23 06:53:00,
2013-10-23 01:58:00,-999.0,-99.9,29.32,NNE,25,0.4,1.6,-999,-99.99,,,-99.99,WSDL version 426,2013-10-23 06:58:00,
2013-10-23 02:03:00,-999.0,-99.9,29.32,NNE,23,1.3,1.6,-999,-99.99,,,-99.99,WSDL version 426,2013-10-23 07:03:00,
2013-10-23 02:08:00,-999.0,-99.9,29.32,NNE,23,0.0,1.6,-999,-99.99,,,-99.99,WSDL version 426,2013-10-23 07:08:00,
2013-10-23 02:13:00,-999.0,-99.9,29.32,NNE,23,0.0,0.0,-999,-99.99,,,-99.99,WSDL version 426,2013-10-23 07:13:00,
2013-10-23 02:18:00,-999.0,-99.9,29.32,NNE,23,0.0,0.0,-999,-99.99,,,-99.99,WSDL version 426,2013-10-23 07:18:00,
2013-10-23 02:23:00,-999.0,-99.9,29.32,NNE,23,0.0,0.0,-999,3.03,,,3.03,WSDL version 426,2013-10-23 07:23:00,
2013-10-23 02:28:00,-999.0,-99.9,29.32,NNE,23,0.3,2.0,-999,3.03,,,3.03,WSDL version 426,2013-10-23 07:28:00,
2013-10-23 02:33:00,-999.0,-99.9,29.32,NNE,23,1.6,2.2,-999,3.03,,,3.03,WSDL version 426,2013-10-23 07:33:00,
2013-10-23 02:38:00,-999.0,-99.9,29.32,ENE,59,1.3,2.2,-999,3.03,,,3.03,WSDL version 426,2013-10-23 07:38:00,
2013-10-23 02:43:00,-999.0,-99.9,29.32,ENE,68,0.0,2.0,-999,3.03,,,3.03,WSDL version 426,2013-10-23 07:43:00,
2013-10-23 02:48:00,-999.0,-99.9,29.35,ENE,62,0.0,1.3,-999,-99.99,,,-99.99,WSDL version 426,2013-10-23 07:48:00,
2013-10-23 02:53:00,-999.0,-99.9,29.35,NNE,30,1.6,3.1,-999,3.03,,,3.03,WSDL version 426,2013-10-23 07:53:00,
2013-10-23 02:58:00,-999.0,-99.9,29.35,NNE,18,2.2,6.0,-999,3.03,,,3.03,WSDL version 426,2013-10-23 07:58:00,
2013-10-23 03:03:00,-999.0,-99.9,29.32,North,358,2.0,6.0,-999,-99.99,,,-99.99,WSDL version 426,2013-10-23 08:03:00,
2013-10-23 03:08:00,-999.0,-99.9,29.32,NNW,348,2.4,3.6,-999,3.03,,,3.03,WSDL version 426,2013-10-23 08:08:00,
2013-10-23 03:13:00,-999.0,-99.9,29.32,NNE,17,3.1,4.3,-999,-99.99,,,-99.99,WSDL version 426,2013-10-23 08:13:00,
2013-10-23 03:18:00,-999.0,-99.9,29.32,NNE,25,3.9,7.4,-999,-99.99,,,-99.99,WSDL version 426,2013-10-23 08:18:00,
2013-10-23 03:23:00,-999.0,-99.9,29.32,NNE,29,4.4,7.6,-999,-99.99,,,-99.99,WSDL version 426,2013-10-23 08:23:00,
2013-10-23 03:28:00,-999.0,-99.9,29.32,NNE,33,5.3,7.6,-999,-99.99,,,-99.99,WSDL version 426,2013-10-23 08:28:00,
2013-10-23 03:33:00,-999.0,-99.9,29.32,NE,42,4.9,7.8,-999,-99.99,,,-99.99,WSDL version 426,2013-10-23 08:33:00,
2013-10-23 03:38:00,-999.0,-99.9,29.32,NE,42,5.7,10.7,-999,0.00,,,3.03,WSDL version 426,2013-10-23 08:38:00,
2013-10-23 03:43:00,-999.0,-99.9,29.32,NE,50,5.4,10.7,-999,-99.99,,,-99.99,WSDL version 426,2013-10-23 08:43:00,
2013-10-23 03:48:00,-999.0,-99.9,29.32,NE,39,4.1,8.1,-999,0.00,,,3.03,WSDL version 426,2013-10-23 08:48:00,
2013-10-23 03:53:00,47.7,34.1,29.32,NE,53,4.0,8.1,59,0.00,,,3.03,WSDL version 426,2013-10-23 08:53:00,
2013-10-23 03:58:00,-999.0,-99.9,29.32,NE,42,4.3,6.9,-999,-99.99,,,-99.99,WSDL version 426,2013-10-23 08:58:00,
2013-10-23 04:03:00,-999.0,-99.9,29.32,NE,39,4.1,7.4,-999,-99.99,,,-99.99,WSDL version 426,2013-10-23 09:03:00,
2013-10-23 04:08:00,-999.0,-99.9,29.32,NE,43,2.2,7.4,-999,0.00,,,3.03,WSDL version 426,2013-10-23 09:08:00,
2013-10-23 04:13:00,-999.0,-99.9,29.32,NE,48,1.4,3.8,-999,-99.99,,,-99.99,WSDL version 426,2013-10-23 09:13:00,
2013-10-23 04:18:00,-999.0,-99.9,29.32,NE,50,2.8,4.7,-999,0.00,,,3.03,WSDL version 426,2013-10-23 09:18:00,
2013-10-23 04:23:00,-999.0,-99.9,29.32,SSW,203,1.4,4.7,-999,-99.99,,,-99.99,WSDL version 426,2013-10-23 09:23:00,
2013-10-23 04:28:00,-999.0,-99.9,29.32,SSW,203,0.0,2.0,-999,0.00,,,3.03,WSDL version 426,2013-10-23 09:28:00,
2013-10-23 04:33:00,-999.0,-99.9,29.35,NE,42,1.7,2.5,-999,0.00,,,3.03,WSDL version 426,2013-10-23 09:33:00,
2013-10-23 04:38:00,-999.0,-99.9,29.35,NE,45,1.3,2.5,-999,-99.99,,,-99.99,WSDL version 426,2013-10-23 09:38:00,
2013-10-23 04:43:00,-999.0,-99.9,29.35,NE,39,1.3,2.0,-999,0.00,,,3.03,WSDL version 426,2013-10-23 09:43:00,
2013-10-23 04:48:00,-999.0,-99.9,29.35,NE,48,2.4,2.9,-999,0.00,,,3.03,WSDL version 426,2013-10-23 09:48:00,
2013-10-23 04:53:00,-999.0,-99.9,29.35,NE,38,2.4,3.6,-999,0.00,,,3.03,WSDL version 426,2013-10-23 09:53:00,
2013-10-23 04:58:00,-999.0,-99.9,29.35,NE,51,2.6,3.8,-999,0.00,,,3.03,WSDL version 426,2013-10-23 09:58:00,
2013-10-23 05:03:00,-999.0,-99.9,29.35,ENE,63,1.6,3.8,-999,0.00,,,3.03,WSDL version 426,2013-10-23 10:03:00,
2013-10-23 05:08:00,-999.0,-99.9,29.35,ESE,113,0.0,2.5,-999,-99.99,,,-99.99,WSDL version 426,2013-10-23 10:08:00,
2013-10-23 05:13:00,-999.0,-99.9,29.35,SSE,158,1.1,1.6,-999,0.00,,,3.03,WSDL version 426,2013-10-23 10:13:00,
2013-10-23 05:18:00,44.1,30.1,29.35,SSE,158,0.6,1.6,58,0.00,,,3.03,WSDL version 426,2013-10-23 10:18:00,
2013-10-23 05:23:00,43.8,30.0,29.35,SSE,158,0.0,1.6,58,0.00,,,3.03,WSDL version 426,2013-10-23 10:23:00,
2013-10-23 05:28:00,-999.0,-99.9,29.35,SSE,158,1.3,1.6,-999,0.00,,,3.03,WSDL version 426,2013-10-23 10:28:00,
2013-10-23 05:33:00,-999.0,-99.9,29.35,SSE,158,0.6,1.6,-999,-99.99,,,-99.99,WSDL version 426,2013-10-23 10:33:00,
2013-10-23 05:38:00,-999.0,-99.9,29.35,NNW,343,2.2,2.7,-999,0.00,,,3.03,WSDL version 426,2013-10-23 10:38:00,
2013-10-23 05:43:00,-999.0,-99.9,29.35,NNE,23,1.8,2.7,-999,-99.99,,,-99.99,WSDL version 426,2013-10-23 10:43:00,
2013-10-23 05:48:00,-999.0,-99.9,29.38,NNE,23,1.3,2.7,-999,0.00,,,3.03,WSDL version 426,2013-10-23 10:48:00,
2013-10-23 05:53:00,-999.0,-99.9,29.38,NNE,23,0.6,2.0,-999,0.00,,,3.03,WSDL version 426,2013-10-23 10:53:00,
2013-10-23 05:58:00,-999.0,-99.9,29.38,NNE,23,0.4,2.0,-999,0.00,,,3.03,WSDL version 426,2013-10-23 10:58:00,
2013-10-23 06:03:00,-999.0,-99.9,29.38,NNE,23,0.0,1.6,-999,0.00,,,3.03,WSDL version 426,2013-10-23 11:03:00,
2013-10-23 06:08:00,-999.0,-99.9,29.38,NNE,23,0.7,1.6,-999,0.00,,,3.03,WSDL version 426,2013-10-23 11:08:00,
2013-10-23 06:13:00,-999.0,-99.9,29.38,NNE,23,0.0,1.6,-999,0.00,,,3.03,WSDL version 426,2013-10-23 11:13:00,
2013-10-23 06:18:00,-999.0,-99.9,29.38,NNE,23,0.0,0.0,-999,-99.99,,,-99.99,WSDL version 426,2013-10-23 11:18:00,
2013-10-23 06:23:00,-999.0,-99.9,29.38,NNE,23,0.0,0.0,-999,-99.99,,,-99.99,WSDL version 426,2013-10-23 11:23:00,
2013-10-23 06:28:00,-999.0,-99.9,29.38,NNE,23,0.0,1.3,-999,-99.99,,,-99.99,WSDL version 426,2013-10-23 11:28:00,
2013-10-23 06:33:00,-999.0,-99.9,29.38,NNE,23,1.3,2.0,-999,0.00,,,3.03,WSDL version 426,2013-10-23 11:33:00,
2013-10-23 06:38:00,-999.0,-99.9,29.38,NNE,23,0.0,2.0,-999,-99.99,,,-99.99,WSDL version 426,2013-10-23 11:38:00,
2013-10-23 06:43:00,-999.0,-99.9,29.38,NNE,23,0.0,0.9,-999,-99.99,,,-99.99,WSDL version 426,2013-10-23 11:43:00,
2013-10-23 06:48:00,-999.0,-99.9,29.38,NNE,23,0.0,0.0,-999,-99.99,,,-99.99,WSDL version 426,2013-10-23 11:48:00,
2013-10-23 06:53:00,-999.0,-99.9,29.38,NNE,23,0.0,0.0,-999,-99.99,,,-99.99,WSDL version 426,2013-10-23 11:53:00,
2013-10-23 06:58:00,-999.0,-99.9,29.38,NNE,23,0.0,0.0,-999,-99.99,,,-99.99,WSDL version 426,2013-10-23 11:58:00,
2013-10-23 07:03:00,-999.0,-99.9,29.38,NNE,23,0.0,0.0,-999,-99.99,,,-99.99,WSDL version 426,2013-10-23 12:03:00,
2013-10-23 07:08:00,-999.0,-99.9,29.38,ESE,113,0.0,0.0,-999,-99.99,,,-99.99,WSDL version 426,2013-10-23 12:08:00,
2013-10-23 07:13:00,-999.0,-99.9,29.38,SSE,158,1.2,1.6,-999,-99.99,,,-99.99,WSDL version 426,2013-10-23 12:13:00,
2013-10-23 07:18:00,-999.0,-99.9,29.38,South,180,0.1,2.0,-999,-99.99,,,-99.99,WSDL version 426,2013-10-23 12:18:00,
2013-10-23 07:23:00,-999.0,-99.9,29.38,South,180,0.0,2.0,-999,-99.99,,,-99.99,WSDL version 426,2013-10-23 12:23:00,
2013-10-23 07:28:00,-999.0,-99.9,29.38,South,180,0.0,0.0,-999,-99.99,,,-99.99,WSDL version 426,2013-10-23 12:28:00,
2013-10-23 07:33:00,-999.0,-99.9,29.38,South,180,0.0,0.0,-999,-99.99,,,-99.99,WSDL version 426,2013-10-23 12:33:00,
2013-10-23 07:38:00,-999.0,-99.9,29.38,South,180,0.0,0.0,-999,-99.99,,,-99.99,WSDL version 426,2013-10-23 12:38:00,
2013-10-23 07:43:00,-999.0,-99.9,29.38,SSE,158,0.0,1.3,-999,-99.99,,,-99.99,WSDL version 426,2013-10-23 12:43:00,
2013-10-23 07:48:00,-999.0,-99.9,29.38,ESE,113,1.3,2.0,-999,-99.99,,,-99.99,WSDL version 426,2013-10-23 12:48:00,
2013-10-23 07:53:00,-999.0,-99.9,29.38,ESE,113,0.0,2.0,-999,-99.99,,,-99.99,WSDL version 426,2013-10-23 12:53:00,
2013-10-23 07:58:00,-999.0,-99.9,29.38,ESE,113,0.0,1.1,-999,-99.99,,,-99.99,WSDL version 426,2013-10-23 12:58:00,
2013-10-23 08:03:00,-999.0,-99.9,29.38,ESE,113,0.6,1.1,-999,-99.99,,,-99.99,WSDL version 426,2013-10-23 13:03:00,
2013-10-23 08:08:00,-999.0,-99.9,29.38,ESE,113,0.0,1.1,-999,-99.99,,,-99.99,WSDL version 426,2013-10-23 13:08:00,
2013-10-23 08:13:00,-999.0,-99.9,29.38,ESE,113,0.0,0.0,-999,-99.99,,,-99.99,WSDL version 426,2013-10-23 13:13:00,
2013-10-23 08:18:00,-999.0,-99.9,29.38,ESE,113,0.0,0.0,-999,-99.99,,,-99.99,WSDL version 426,2013-10-23 13:18:00,
2013-10-23 08:23:00,-999.0,-99.9,29.38,ESE,113,0.4,2.0,-999,-99.99,,,-99.99,WSDL version 426,2013-10-23 13:23:00,
2013-10-23 08:28:00,-999.0,-99.9,29.38,ESE,113,1.1,2.0,-999,-99.99,,,-99.99,WSDL version 426,2013-10-23 13:28:00,
2013-10-23 08:33:00,-999.0,-99.9,29.38,ESE,113,0.0,1.6,-999,-99.99,,,-99.99,WSDL version 426,2013-10-23 13:33:00,
2013-10-23 08:38:00,-999.0,-99.9,29.38,East,84,1.1,2.2,-999,-99.99,,,-99.99,WSDL version 426,2013-10-23 13:38:00,
2013-10-23 08:43:00,-999.0,-99.9,29.38,ESE,107,1.3,2.2,-999,-99.99,,,-99.99,WSDL version 426,2013-10-23 13:43:00,
2013-10-23 08:48:00,-999.0,-99.9,29.38,ENE,71,2.9,4.3,-999,-99.99,,,-99.99,WSDL version 426,2013-10-23 13:48:00,
2013-10-23 08:53:00,-999.0,-99.9,29.38,East,79,3.1,5.4,-999,-99.99,,,-99.99,WSDL version 426,2013-10-23 13:53:00,
2013-10-23 08:58:00,-999.0,-99.9,29.38,ENE,78,2.6,5.6,-999,-99.99,,,-99.99,WSDL version 426,2013-10-23 13:58:00,
2013-10-23 09:03:00,-999.0,-99.9,29.38,ENE,73,2.6,5.6,-999,-99.99,,,-99.99,WSDL version 426,2013-10-23 14:03:00,
2013-10-23 09:08:00,-999.0,-99.9,29.38,NE,55,4.2,5.8,-999,-99.99,,,-99.99,WSDL version 426,2013-10-23 14:08:00,
2013-10-23 09:13:00,-999.0,-99.9,29.38,NE,48,2.9,5.8,-999,-99.99,,,-99.99,WSDL version 426,2013-10-23 14:13:00,
2013-10-23 09:18:00,-999.0,-99.9,29.38,ENE,78,3.4,5.6,-999,-99.99,,,-99.99,WSDL version 426,2013-10-23 14:18:00,
2013-10-23 09:23:00,-999.0,-99.9,29.38,ENE,68,3.6,4.7,-999,-99.99,,,-99.99,WSDL version 426,2013-10-23 14:23:00,
2013-10-23 09:28:00,-999.0,-99.9,29.38,NE,35,3.9,6.3,-999,-99.99,,,-99.99,WSDL version 426,2013-10-23 14:28:00,
2013-10-23 09:33:00,-999.0,-99.9,29.38,ENE,60,3.2,6.3,-999,-99.99,,,-99.99,WSDL version 426,2013-10-23 14:33:00,
2013-10-23 09:38:00,-999.0,-99.9,29.38,ESE,110,3.3,4.9,-999,-99.99,,,-99.99,WSDL version 426,2013-10-23 14:38:00,
2013-10-23 09:43:00,-999.0,-99.9,29.38,East,93,4.0,6.5,-999,-99.99,,,-99.99,WSDL version 426,2013-10-23 14:43:00,
2013-10-23 09:48:00,-999.0,-99.9,29.38,ESE,104,3.8,7.2,-999,-99.99,,,-99.99,WSDL version 426,2013-10-23 14:48:00,
2013-10-23 09:53:00,-999.0,-99.9,29.38,ENE,75,3.8,7.2,-999,-99.99,,,-99.99,WSDL version 426,2013-10-23 14:53:00,
2013-10-23 09:58:00,-999.0,-99.9,29.38,ENE,68,4.4,6.5,-999,-99.99,,,-99.99,WSDL version 426,2013-10-23 14:58:00,
2013-10-23 10:03:00,-999.0,-99.9,29.38,East,79,4.7,6.5,-999,-99.99,,,-99.99,WSDL version 426,2013-10-23 15:03:00,
2013-10-23 10:08:00,-999.0,-99.9,29.38,ESE,110,4.2,6.3,-999,-99.99,,,-99.99,WSDL version 426,2013-10-23 15:08:00,
2013-10-23 10:13:00,-999.0,-99.9,29.38,ESE,107,5.1,7.4,-999,-99.99,,,-99.99,WSDL version 426,2013-10-23 15:13:00,
2013-10-23 10:18:00,51.8,32.8,29.38,ESE,113,4.5,7.4,48,-99.99,,,-99.99,WSDL version 426,2013-10-23 15:18:00,
2013-10-23 10:23:00,52.3,33.3,29.38,East,82,3.0,6.3,49,-99.99,,,-99.99,WSDL version 426,2013-10-23 15:23:00,
2013-10-23 10:28:00,-999.0,-99.9,29.38,ESE,105,3.0,6.0,-999,-99.99,,,-99.99,WSDL version 426,2013-10-23 15:28:00,
2013-10-23 10:33:00,-999.0,-99.9,29.41,NNE,28,4.6,8.1,-999,-99.99,,,-99.99,WSDL version 426,2013-10-23 15:33:00,
2013-10-23 10:39:00,-999.0,-99.9,29.41,NE,39,5.5,8.1,-999,-99.99,,,-99.99,WSDL version 426,2013-10-23 15:39:00,
2013-10-23 10:44:00,-999.0,-99.9,29.41,NE,53,4.2,7.4,-999,-99.99,,,-99.99,WSDL version 426,2013-10-23 15:44:00,
2013-10-23 10:49:00,-999.0,-99.9,29.38,East,100,4.6,7.6,-999,-99.99,,,-99.99,WSDL version 426,2013-10-23 15:49:00,
2013-10-23 10:54:00,-999.0,-99.9,29.38,East,98,3.8,7.6,-999,-99.99,,,-99.99,WSDL version 426,2013-10-23 15:54:00,
2013-10-23 10:59:00,-999.0,-99.9,29.38,East,80,3.5,6.5,-999,-99.99,,,-99.99,WSDL version 426,2013-10-23 15:59:00,
2013-10-23 11:04:00,-999.0,-99.9,29.38,ENE,61,5.2,6.7,-999,-99.99,,,-99.99,WSDL version 426,2013-10-23 16:04:00,
2013-10-23 11:09:00,-999.0,-99.9,29.38,East,96,3.2,6.7,-999,-99.99,,,-99.99,WSDL version 426,2013-10-23 16:09:00,
2013-10-23 11:14:00,-999.0,-99.9,29.38,ESE,107,3.9,6.9,-999,-99.99,,,-99.99,WSDL version 426,2013-10-23 16:14:00,
2013-10-23 11:19:00,57.5,31.5,29.38,ESE,110,2.8,6.9,37,-99.99,,,-99.99,WSDL version 426,2013-10-23 16:19:00,
2013-10-23 11:24:00,58.0,32.0,29.38,NE,53,5.3,7.4,37,-99.99,,,-99.99,WSDL version 426,2013-10-23 16:24:00,
2013-10-23 11:29:00,-999.0,-99.9,29.38,NE,48,3.4,7.4,-999,-99.99,,,-99.99,WSDL version 426,2013-10-23 16:29:00,
2013-10-23 11:34:00,-999.0,-99.9,29.38,NNE,25,3.7,6.7,-999,-99.99,,,-99.99,WSDL version 426,2013-10-23 16:34:00,
2013-10-23 11:39:00,-999.0,-99.9,29.38,ESE,115,2.9,6.0,-999,-99.99,,,-99.99,WSDL version 426,2013-10-23 16:39:00,
2013-10-23 11:44:00,-999.0,-99.9,29.38,ENE,65,6.0,8.7,-999,-99.99,,,-99.99,WSDL version 426,2013-10-23 16:44:00,
2013-10-23 11:49:00,-999.0,-99.9,29.38,East,101,3.0,8.7,-999,-99.99,,,-99.99,WSDL version 426,2013-10-23 16:49:00,
2013-10-23 11:54:00,-999.0,-99.9,29.38,NE,56,3.7,6.3,-999,-99.99,,,-99.99,WSDL version 426,2013-10-23 16:54:00,
2013-10-23 11:59:00,-999.0,-99.9,29.38,East,88,3.6,7.2,-999,-99.99,,,-99.99,WSDL version 426,2013-10-23 16:59:00,
2013-10-23 12:04:00,-999.0,-99.9,29.35,ENE,68,5.2,7.8,-999,-99.99,,,-99.99,WSDL version 426,2013-10-23 17:04:00,
2013-10-23 12:09:00,-999.0,-99.9,29.35,ESE,103,4.0,7.8,-999,-99.99,,,-99.99,WSDL version 426,2013-10-23 17:09:00,
2013-10-23 12:14:00,-999.0,-99.9,29.35,ENE,78,5.7,7.4,-999,-99.99,,,-99.99,WSDL version 426,2013-10-23 17:14:00,
2013-10-23 12:19:00,-999.0,-99.9,29.35,ESE,113,5.2,8.5,-999,-99.99,,,-99.99,WSDL version 426,2013-10-23 17:19:00,
2013-10-23 12:24:00,-999.0,-99.9,29.35,East,85,2.8,8.5,-999,-99.99,,,-99.99,WSDL version 426,2013-10-23 17:24:00,
2013-10-23 12:29:00,-999.0,-99.9,29.35,ENE,68,4.5,8.5,-999,-99.99,,,-99.99,WSDL version 426,2013-10-23 17:29:00,
2013-10-23 12:34:00,-999.0,-99.9,29.35,ESE,108,3.6,8.5,-999,-99.99,,,-99.99,WSDL version 426,2013-10-23 17:34:00,
2013-10-23 12:39:00,-999.0,-99.9,29.35,ENE,62,3.8,8.5,-999,-99.99,,,-99.99,WSDL version 426,2013-10-23 17:39:00,
2013-10-23 12:44:00,-999.0,-99.9,29.35,ESE,113,3.6,9.2,-999,-99.99,,,-99.99,WSDL version 426,2013-10-23 17:44:00,
2013-10-23 12:49:00,-999.0,-99.9,29.35,ESE,118,5.9,10.5,-999,-99.99,,,-99.99,WSDL version 426,2013-10-23 17:49:00,
2013-10-23 12:54:00,-999.0,-99.9,29.35,ENE,68,4.9,10.5,-999,-99.99,,,-99.99,WSDL version 426,2013-10-23 17:54:00,
2013-10-23 12:59:00,-999.0,-99.9,29.35,ESE,115,5.3,8.1,-999,-99.99,,,-99.99,WSDL version 426,2013-10-23 17:59:00,
2013-10-23 13:04:00,-999.0,-99.9,29.32,ESE,121,4.6,6.9,-999,-99.99,,,-99.99,WSDL version 426,2013-10-23 18:04:00,
2013-10-23 13:09:00,-999.0,-99.9,29.32,SE,132,5.8,10.3,-999,-99.99,,,-99.99,WSDL version 426,2013-10-23 18:09:00,
2013-10-23 13:14:00,-999.0,-99.9,29.32,East,98,5.4,10.3,-999,-99.99,,,-99.99,WSDL version 426,2013-10-23 18:14:00,
2013-10-23 13:19:00,-999.0,-99.9,29.32,ESE,113,5.9,9.2,-999,-99.99,,,-99.99,WSDL version 426,2013-10-23 18:19:00,
2013-10-23 13:24:00,-999.0,-99.9,29.32,ESE,113,4.8,8.1,-999,-99.99,,,-99.99,WSDL version 426,2013-10-23 18:24:00,
2013-10-23 13:29:00,-999.0,-99.9,29.32,South,169,4.2,7.4,-999,-99.99,,,-99.99,WSDL version 426,2013-10-23 18:29:00,
2013-10-23 13:34:00,-999.0,-99.9,29.32,ESE,120,5.0,8.1,-999,-99.99,,,-99.99,WSDL version 426,2013-10-23 18:34:00,
2013-10-23 13:39:00,-999.0,-99.9,29.32,South,188,1.5,8.1,-999,-99.99,,,-99.99,WSDL version 426,2013-10-23 18:39:00,
2013-10-23 13:44:00,-999.0,-99.9,29.32,ESE,105,4.8,9.6,-999,-99.99,,,-99.99,WSDL version 426,2013-10-23 18:44:00,
2013-10-23 13:49:00,-999.0,-99.9,29.32,ESE,110,5.6,10.5,-999,-99.99,,,-99.99,WSDL version 426,2013-10-23 18:49:00,
2013-10-23 13:54:00,-999.0,-99.9,29.32,SE,132,4.6,10.5,-999,-99.99,,,-99.99,WSDL version 426,2013-10-23 18:54:00,
2013-10-23 13:59:00,-999.0,-99.9,29.32,SSE,158,3.5,8.7,-999,-99.99,,,-99.99,WSDL version 426,2013-10-23 18:59:00,
2013-10-23 14:04:00,-999.0,-99.9,29.32,SE,129,6.0,10.3,-999,-99.99,,,-99.99,WSDL version 426,2013-10-23 19:04:00,
2013-10-23 14:09:00,-999.0,-99.9,29.32,SE,130,3.2,10.3,-999,-99.99,,,-99.99,WSDL version 426,2013-10-23 19:09:00,
2013-10-23 14:14:00,-999.0,-99.9,29.32,SE,145,3.8,7.6,-999,-99.99,,,-99.99,WSDL version 426,2013-10-23 19:14:00,
2013-10-23 14:19:00,69.9,32.1,29.29,ESE,113,5.4,10.3,25,-99.99,,,-99.99,WSDL version 426,2013-10-23 19:19:00,
2013-10-23 14:24:00,69.9,32.1,29.29,SSE,160,4.8,10.3,24,-99.99,,,-99.99,WSDL version 426,2013-10-23 19:24:00,
2013-10-23 14:29:00,-999.0,-99.9,29.29,ESE,107,2.8,8.5,-999,-99.99,,,-99.99,WSDL version 426,2013-10-23 19:29:00,
2013-10-23 14:34:00,-999.0,-99.9,29.29,SE,133,4.9,7.6,-999,-99.99,,,-99.99,WSDL version 426,2013-10-23 19:34:00,
2013-10-23 14:39:00,-999.0,-99.9,29.29,SE,127,5.5,10.5,-999,-99.99,,,-99.99,WSDL version 426,2013-10-23 19:39:00,
2013-10-23 14:44:00,-999.0,-99.9,29.29,SE,140,5.6,11.2,-999,-99.99,,,-99.99,WSDL version 426,2013-10-23 19:44:00,
2013-10-23 14:49:00,-999.0,-99.9,29.29,SE,146,5.4,11.2,-999,-99.99,,,-99.99,WSDL version 426,2013-10-23 19:49:00,
2013-10-23 14:54:00,-999.0,-99.9,29.29,SE,135,7.0,9.8,-999,-99.99,,,-99.99,WSDL version 426,2013-10-23 19:54:00,
2013-10-23 14:59:00,-999.0,-99.9,29.29,ESE,123,5.5,10.1,-999,-99.99,,,-99.99,WSDL version 426,2013-10-23 19:59:00,
2013-10-23 15:04:00,-999.0,-99.9,29.26,SSE,160,6.4,12.3,-999,-99.99,,,-99.99,WSDL version 426,2013-10-23 20:04:00,
2013-10-23 15:09:00,72.3,32.5,29.26,SE,127,6.1,12.3,23,-99.99,,,-99.99,WSDL version 426,2013-10-23 20:09:00,
2013-10-23 15:14:00,72.4,32.6,29.26,SE,135,4.6,11.0,23,-99.99,,,-99.99,WSDL version 426,2013-10-23 20:14:00,
2013-10-23 15:19:00,-999.0,-99.9,29.26,SE,124,5.4,11.0,-999,-99.99,,,-99.99,WSDL version 426,2013-10-23 20:19:00,
2013-10-23 15:24:00,73.0,33.1,29.26,SE,135,6.0,9.4,23,-99.99,,,-99.99,WSDL version 426,2013-10-23 20:24:00,
2013-10-23 15:29:00,-999.0,-99.9,29.26,SSE,149,5.5,10.3,-999,-99.99,,,-99.99,WSDL version 426,2013-10-23 20:29:00,
2013-10-23 15:34:00,74.2,32.9,29.26,SE,129,5.5,10.3,22,-99.99,,,-99.99,WSDL version 426,2013-10-23 20:34:00,
2013-10-23 15:39:00,74.6,32.9,29.26,SSE,154,5.0,10.5,21,-99.99,,,-99.99,WSDL version 426,2013-10-23 20:39:00,
2013-10-23 15:44:00,75.6,32.9,29.26,SE,125,5.7,10.5,21,-99.99,,,-99.99,WSDL version 426,2013-10-23 20:44:00,
2013-10-23 15:49:00,75.0,32.5,29.26,SE,127,7.8,12.1,21,-99.99,,,-99.99,WSDL version 426,2013-10-23 20:49:00,
2013-10-23 15:54:00,75.0,32.5,29.26,SE,140,6.1,12.1,21,-99.99,,,-99.99,WSDL version 426,2013-10-23 20:54:00,
2013-10-23 15:59:00,75.9,33.2,29.26,ESE,120,6.8,13.0,21,-99.99,,,-99.99,WSDL version 426,2013-10-23 20:59:00,
2013-10-23 16:04:00,76.3,32.3,29.26,SE,124,6.4,13.0,20,-99.99,,,-99.99,WSDL version 426,2013-10-23 21:04:00,
2013-10-23 16:09:00,76.7,32.6,29.26,ESE,120,6.0,10.7,20,-99.99,,,-99.99,WSDL version 426,2013-10-23 21:09:00,
2013-10-23 16:14:00,77.0,32.9,29.26,SSE,154,6.0,8.7,20,-99.99,,,-99.99,WSDL version 426,2013-10-23 21:14:00,
2013-10-23 16:19:00,77.6,32.5,29.26,SE,146,4.7,8.5,20,-99.99,,,-99.99,WSDL version 426,2013-10-23 21:19:00,
2013-10-23 16:24:00,78.1,31.2,29.26,SE,141,4.9,9.8,18,-99.99,,,-99.99,WSDL version 426,2013-10-23 21:24:00,
2013-10-23 16:29:00,-999.0,-99.9,29.26,SE,138,5.4,10.3,-999,-99.99,,,-99.99,WSDL version 426,2013-10-23 21:29:00,
2013-10-23 16:34:00,-999.0,-99.9,29.26,SE,138,3.9,10.3,-999,-99.99,,,-99.99,WSDL version 426,2013-10-23 21:34:00,
2013-10-23 16:39:00,78.3,31.3,29.26,ESE,121,4.4,9.4,18,-99.99,,,-99.99,WSDL version 426,2013-10-23 21:39:00,
2013-10-23 16:44:00,-999.0,-99.9,29.26,SSE,148,3.5,9.4,-999,-99.99,,,-99.99,WSDL version 426,2013-10-23 21:44:00,
2013-10-23 16:49:00,79.1,29.1,29.23,South,174,6.4,9.6,15,-99.99,,,-99.99,WSDL version 426,2013-10-23 21:49:00,
2013-10-23 16:54:00,78.7,28.0,29.23,South,174,6.2,10.7,15,-99.99,,,-99.99,WSDL version 426,2013-10-23 21:54:00,
2013-10-23 16:59:00,78.6,29.0,29.23,South,177,5.6,10.7,17,-99.99,,,-99.99,WSDL version 426,2013-10-23 21:59:00,
2013-10-23 17:04:00,78.1,26.7,29.23,SSE,165,4.7,12.3,15,-99.99,,,-99.99,WSDL version 426,2013-10-23 22:04:00,
2013-10-23 17:09:00,-999.0,-99.9,29.23,SSE,154,5.1,12.3,-999,-99.99,,,-99.99,WSDL version 426,2013-10-23 22:09:00,
2013-10-23 17:14:00,-999.0,-99.9,29.23,South,170,3.8,8.5,-999,-99.99,,,-99.99,WSDL version 426,2013-10-23 22:14:00,
2013-10-23 17:19:00,78.3,31.4,29.23,SSE,165,6.1,11.0,18,-99.99,,,-99.99,WSDL version 426,2013-10-23 22:19:00,
2013-10-23 17:24:00,78.5,30.8,29.23,SSE,158,3.8,11.0,17,-99.99,,,-99.99,WSDL version 426,2013-10-23 22:24:00,
2013-10-23 17:29:00,-999.0,-99.9,29.23,SSE,158,4.6,7.8,-999,-99.99,,,-99.99,WSDL version 426,2013-10-23 22:29:00,
2013-10-23 17:34:00,-999.0,-99.9,29.23,SSE,158,3.4,7.8,-999,-99.99,,,-99.99,WSDL version 426,2013-10-23 22:34:00,
2013-10-23 17:39:00,-999.0,-99.9,29.23,SE,138,4.3,8.7,-999,-99.99,,,-99.99,WSDL version 426,2013-10-23 22:39:00,
2013-10-23 17:44:00,-999.0,-99.9,29.23,SSE,155,3.6,8.7,-999,-99.99,,,-99.99,WSDL version 426,2013-10-23 22:44:00,
2013-10-23 17:49:00,-999.0,-99.9,29.23,SE,125,2.3,5.8,-999,-99.99,,,-99.99,WSDL version 426,2013-10-23 22:49:00,
2013-10-23 17:54:00,-999.0,-99.9,29.23,SSE,155,2.3,4.0,-999,-99.99,,,-99.99,WSDL version 426,2013-10-23 22:54:00,
2013-10-23 17:59:00,-999.0,-99.9,29.23,SE,141,2.9,4.0,-999,-99.99,,,-99.99,WSDL version 426,2013-10-23 22:59:00,
2013-10-23 18:04:00,-999.0,-99.9,29.23,SSE,149,2.0,4.0,-999,-99.99,,,-99.99,WSDL version 426,2013-10-23 23:04:00,
2013-10-23 18:09:00,-999.0,-99.9,29.23,SSE,160,2.1,3.8,-999,-99.99,,,-99.99,WSDL version 426,2013-10-23 23:09:00,
2013-10-23 18:14:00,-999.0,-99.9,29.23,ESE,113,0.4,3.8,-999,-99.99,,,-99.99,WSDL version 426,2013-10-23 23:14:00,
2013-10-23 18:19:00,-999.0,-99.9,29.26,ESE,113,0.0,2.0,-999,-99.99,,,-99.99,WSDL version 426,2013-10-23 23:19:00,
2013-10-23 18:24:00,73.8,31.4,29.26,ESE,113,0.0,0.9,21,-99.99,,,-99.99,WSDL version 426,2013-10-23 23:24:00,
2013-10-23 18:29:00,72.3,31.4,29.26,ESE,113,0.0,0.0,22,0.00,,,3.03,WSDL version 426,2013-10-23 23:29:00,
2013-10-23 18:34:00,71.1,31.4,29.26,ESE,113,0.0,0.0,23,-99.99,,,-99.99,WSDL version 426,2013-10-23 23:34:00,
2013-10-23 18:39:00,-999.0,-99.9,29.26,ESE,113,0.0,0.0,-999,-99.99,,,-99.99,WSDL version 426,2013-10-23 23:39:00,
2013-10-23 18:44:00,-999.0,-99.9,29.26,ESE,113,0.0,0.0,-999,-99.99,,,-99.99,WSDL version 426,2013-10-23 23:44:00,
2013-10-23 18:49:00,-999.0,-99.9,29.26,ESE,113,0.0,0.0,-999,-99.99,,,-99.99,WSDL version 426,2013-10-23 23:49:00,
2013-10-23 18:54:00,-999.0,-99.9,29.26,ESE,113,1.3,2.0,-999,0.00,,,3.03,WSDL version 426,2013-10-23 23:54:00,
2013-10-23 18:59:00,-999.0,-99.9,29.26,ESE,113,0.6,2.0,-999,-99.99,,,-99.99,WSDL version 426,2013-10-23 23:59:00,
2013-10-23 19:04:00,-999.0,-99.9,29.26,ESE,113,0.0,1.3,-999,-99.99,,,-99.99,WSDL version 426,2013-10-24 00:04:00,
2013-10-23 19:09:00,63.7,34.8,29.26,ESE,113,0.0,0.0,34,-99.99,,,-99.99,WSDL version 426,2013-10-24 00:09:00,
2013-10-23 19:14:00,-999.0,-99.9,29.26,ESE,113,0.0,1.6,-999,-99.99,,,-99.99,WSDL version 426,2013-10-24 00:14:00,
2013-10-23 19:19:00,-999.0,-99.9,29.26,ESE,113,1.1,1.6,-999,-99.99,,,-99.99,WSDL version 426,2013-10-24 00:19:00,
2013-10-23 19:24:00,62.1,34.3,29.26,ESE,113,0.2,1.6,36,-99.99,,,-99.99,WSDL version 426,2013-10-24 00:24:00,
2013-10-23 19:29:00,61.6,34.4,29.26,ESE,113,0.0,1.6,36,0.00,,,3.03,WSDL version 426,2013-10-24 00:29:00,
2013-10-23 19:34:00,61.0,34.4,29.26,ESE,113,1.3,1.6,37,0.00,,,3.03,WSDL version 426,2013-10-24 00:34:00,
2013-10-23 19:39:00,60.5,34.8,29.26,ENE,65,2.0,2.5,38,0.00,,,3.03,WSDL version 426,2013-10-24 00:39:00,
2013-10-23 19:44:00,60.1,34.5,29.26,ENE,68,1.3,2.7,38,0.00,,,3.03,WSDL version 426,2013-10-24 00:44:00,
2013-10-23 19:49:00,59.8,34.2,29.26,East,90,1.3,2.7,38,0.00,,,3.03,WSDL version 426,2013-10-24 00:49:00,
2013-10-23 19:54:00,59.5,33.9,29.26,East,90,0.0,2.0,38,0.00,,,3.03,WSDL version 426,2013-10-24 00:54:00,
2013-10-23 19:59:00,59.4,33.8,29.26,East,90,0.4,1.6,38,-99.99,,,-99.99,WSDL version 426,2013-10-24 00:59:00,
2013-10-23 20:04:00,59.1,34.2,29.29,East,90,0.0,1.6,39,-99.99,,,-99.99,WSDL version 426,2013-10-24 01:04:00,
2013-10-23 20:09:00,58.6,34.6,29.29,East,90,0.0,1.1,41,-99.99,,,-99.99,WSDL version 426,2013-10-24 01:09:00,
2013-10-23 20:15:00,58.3,34.7,29.29,East,90,0.0,1.1,41,-99.99,,,-99.99,WSDL version 426,2013-10-24 01:15:00,
2013-10-23 20:20:00,58.0,34.5,29.29,East,90,0.0,0.0,41,-99.99,,,-99.99,WSDL version 426,2013-10-24 01:20:00,
2013-10-23 20:25:00,57.7,34.7,29.29,East,90,1.2,1.6,42,0.00,,,3.03,WSDL version 426,2013-10-24 01:25:00,
2013-10-23 20:30:00,57.4,35.1,29.29,East,85,1.0,2.0,43,-99.99,,,-99.99,WSDL version 426,2013-10-24 01:30:00,
2013-10-23 20:35:00,57.2,35.2,29.29,ENE,68,1.2,2.5,44,-99.99,,,-99.99,WSDL version 426,2013-10-24 01:35:00,
2013-10-23 20:40:00,57.0,35.3,29.29,ENE,68,1.4,2.5,44,0.00,,,3.03,WSDL version 426,2013-10-24 01:40:00,
2013-10-23 20:45:00,56.8,35.6,29.29,NNE,25,1.8,3.1,45,-99.99,,,-99.99,WSDL version 426,2013-10-24 01:45:00,
2013-10-23 20:50:00,56.7,35.4,29.29,NNE,23,1.1,3.1,44,0.00,,,3.03,WSDL version 426,2013-10-24 01:50:00,
2013-10-23 20:55:00,56.6,35.5,29.29,NNE,23,1.0,2.2,45,0.00,,,3.03,WSDL version 426,2013-10-24 01:55:00,
2013-10-23 21:00:00,56.4,35.4,29.29,East,90,1.1,2.0,45,0.00,,,3.03,WSDL version 426,2013-10-24 02:00:00,
2013-10-23 21:05:00,56.1,35.3,29.29,East,82,1.1,2.0,46,0.00,,,3.03,WSDL version 426,2013-10-24 02:05:00,
2013-10-23 21:10:00,55.7,35.4,29.29,ENE,59,1.1,2.7,47,0.00,,,3.03,WSDL version 426,2013-10-24 02:10:00,
2013-10-23 21:15:00,54.9,35.6,29.29,ENE,60,0.4,2.7,48,0.00,,,3.03,WSDL version 426,2013-10-24 02:15:00,
2013-10-23 21:20:00,54.5,35.2,29.29,NE,45,0.0,2.2,48,0.00,,,3.03,WSDL version 426,2013-10-24 02:20:00,
2013-10-23 21:25:00,54.4,35.2,29.29,NE,45,0.0,1.6,49,-99.99,,,-99.99,WSDL version 426,2013-10-24 02:25:00,
2013-10-23 21:30:00,54.3,35.5,29.29,NE,45,0.0,0.0,49,0.00,,,3.03,WSDL version 426,2013-10-24 02:30:00,
2013-10-23 21:35:00,54.0,36.0,29.29,ENE,68,0.9,1.3,51,0.00,,,3.03,WSDL version 426,2013-10-24 02:35:00,
2013-10-23 21:40:00,53.3,36.0,29.29,SSW,203,0.7,2.2,52,0.00,,,3.03,WSDL version 426,2013-10-24 02:40:00,
2013-10-23 21:45:00,53.0,35.9,29.29,SSW,203,0.0,2.2,52,0.00,,,3.03,WSDL version 426,2013-10-24 02:45:00,
2013-10-23 21:50:00,52.9,35.7,29.29,WSW,248,0.0,2.0,52,0.00,,,3.03,WSDL version 426,2013-10-24 02:50:00,
2013-10-23 21:55:00,52.9,35.8,29.29,WNW,293,0.2,2.2,52,0.00,,,3.03,WSDL version 426,2013-10-24 02:55:00,
2013-10-23 22:00:00,52.9,35.9,29.32,WNW,293,0.0,2.2,52,0.00,,,3.03,WSDL version 426,2013-10-24 03:00:00,
2013-10-23 22:05:00,52.8,36.1,29.32,WNW,293,0.0,0.0,53,0.00,,,3.03,WSDL version 426,2013-10-24 03:05:00,
2013-10-23 22:10:00,52.6,35.9,29.32,WNW,293,0.0,0.0,53,0.00,,,3.03,WSDL version 426,2013-10-24 03:10:00,
2013-10-23 22:15:00,52.2,36.2,29.29,WNW,293,0.0,0.0,55,0.00,,,3.03,WSDL version 426,2013-10-24 03:15:00,
2013-10-23 22:20:00,51.9,36.0,29.29,SW,225,0.0,1.1,55,0.00,,,3.03,WSDL version 426,2013-10-24 03:20:00,
2013-10-23 22:25:00,51.7,36.4,29.29,SW,225,0.0,1.1,56,0.00,,,3.03,WSDL version 426,2013-10-24 03:25:00,
2013-10-23 22:30:00,51.4,36.5,29.32,SSW,205,0.0,0.0,57,0.00,,,3.03,WSDL version 426,2013-10-24 03:30:00,
2013-10-23 22:35:00,51.4,36.6,29.32,South,180,0.0,0.0,56,0.00,,,3.03,WSDL version 426,2013-10-24 03:35:00,
2013-10-23 22:40:00,51.3,36.6,29.32,South,180,0.0,0.0,57,-99.99,,,-99.99,WSDL version 426,2013-10-24 03:40:00,
2013-10-23 22:45:00,51.2,36.2,29.32,SSW,208,0.4,1.3,57,0.00,,,3.03,WSDL version 426,2013-10-24 03:45:00,
2013-10-23 22:50:00,51.2,36.5,29.32,NNE,23,0.2,1.6,57,0.00,,,3.03,WSDL version 426,2013-10-24 03:50:00,
2013-10-23 22:55:00,51.3,36.6,29.32,NE,42,0.0,1.6,57,0.00,,,3.03,WSDL version 426,2013-10-24 03:55:00,
2013-10-23 23:00:00,51.3,36.8,29.32,NE,45,0.0,0.0,58,0.00,,,3.03,WSDL version 426,2013-10-24 04:00:00,
2013-10-23 23:01:00,51.3,36.8,29.32,NE,45,0.0,0.0,57,0.00,,,3.03,WSDL version 426,2013-10-24 04:01:00,
2013-10-23 23:02:00,51.3,36.7,29.32,NE,45,0.0,0.0,57,0.00,,,3.03,WSDL version 426,2013-10-24 04:02:00,
2013-10-23 23:03:00,51.3,36.8,29.32,NE,45,0.0,0.0,58,0.00,,,3.03,WSDL version 426,2013-10-24 04:03:00,
2013-10-23 23:04:00,51.3,36.8,29.32,NE,45,0.0,0.0,58,0.00,,,3.03,WSDL version 426,2013-10-24 04:04:00,
2013-10-23 23:07:00,51.2,37.0,29.32,NE,45,0.0,0.0,58,0.00,,,3.03,WSDL version 426,2013-10-24 04:07:00,
2013-10-23 23:08:00,51.2,36.9,29.32,NE,45,0.0,0.0,58,0.00,,,3.03,WSDL version 426,2013-10-24 04:08:00,
2013-10-23 23:13:00,50.8,37.0,29.32,South,180,1.5,2.2,59,0.00,,,3.03,WSDL version 426,2013-10-24 04:13:00,
2013-10-23 23:18:00,50.5,36.9,29.32,South,180,0.0,2.2,60,0.00,,,3.03,WSDL version 426,2013-10-24 04:18:00,
2013-10-23 23:23:00,50.4,36.9,29.32,South,180,2.0,2.5,61,0.00,,,3.03,WSDL version 426,2013-10-24 04:23:00,
2013-10-23 23:28:00,50.4,37.6,29.32,NNE,20,0.1,2.5,62,0.00,,,3.03,WSDL version 426,2013-10-24 04:28:00,
2013-10-23 23:33:00,50.3,38.2,29.32,SE,135,0.6,2.2,63,-99.99,,,-99.99,WSDL version 426,2013-10-24 04:33:00,
2013-10-23 23:38:00,50.0,37.9,29.32,SE,135,0.0,1.3,63,0.00,,,3.03,WSDL version 426,2013-10-24 04:38:00,
2013-10-23 23:43:00,49.8,37.7,29.32,SE,135,0.0,0.9,63,0.00,,,3.03,WSDL version 426,2013-10-24 04:43:00,
2013-10-23 23:48:00,49.8,37.9,29.32,SE,135,0.0,1.1,63,0.00,,,3.03,WSDL version 426,2013-10-24 04:48:00,
2013-10-23 23:53:00,49.7,37.7,29.32,SE,135,0.0,1.1,63,0.00,,,3.03,WSDL version 426,2013-10-24 04:53:00,
2013-10-23 23:58:00,49.6,37.7,29.32,SE,135,0.0,0.0,63,0.00,,,3.03,WSDL version 426,2013-10-24 04:58:00,